Edison, Colorado
Current Conditions -  °F | °C
As of 8:56 AM on Saturday 25 Oct 2014 (Local Time) from KSHM Reporting Station
Clear Clear  
Wind Chill: 64°   Ceiling: Unl
Heat Index: 64°   Visibility: 10mi
Dew Point: 16°   Wind: 10mph
Humidity: 16%   Direction: 350°N
Pressure: 30.31"   Gusts: NA
Location:  38.697°N, 104.225°W
Report Text: KSHM 251456Z AUTO 35009KT 10SM CLR 18/M09 A3031 RMK AO2 SLP209 T01781088 52012
Loading
Personal Weather Stations






























Interactive Weather Map
Tropical Storm Tracking
New forecast layout! Learn more

10-Day Weather Forecast

Advertisements
Track Severe Weather on mobile